Time;durP1;ratioP1;P1;durP2;ratioP2;P2;SDS_P1;SDS_P2;PMS_P1;PMS_P2;Temp;Humidity;BMP_temperature;BMP_pressure;BME280_temperature;BME280_humidity;BME280_pressure;Samples;Min_cycle;Max_cycle;Signal;HPM_P1;HPM_P2
2021/11/05 00:00:09;;;;;;;6.78;4.72;;;;;;;7.85;81.93;100320.00;5017259;28;20396;-82
2021/11/05 00:02:35;;;;;;;4.88;4.35;;;;;;;7.72;82.11;100321.03;5016790;28;20836;-81
2021/11/05 00:05:00;;;;;;;5.07;4.60;;;;;;;7.73;82.72;100316.47;5019358;28;20490;-82
2021/11/05 00:07:26;;;;;;;4.93;4.53;;;;;;;7.80;82.21;100331.47;5020880;28;20433;-82
2021/11/05 00:09:51;;;;;;;5.47;4.97;;;;;;;7.80;82.50;100323.38;5017715;28;20527;-82
2021/11/05 00:12:17;;;;;;;5.97;5.47;;;;;;;7.79;82.02;100329.03;5018648;28;20429;-82
2021/11/05 00:14:42;;;;;;;5.43;4.87;;;;;;;7.83;82.03;100324.81;5018406;28;20793;-82
2021/11/05 00:17:08;;;;;;;5.70;5.13;;;;;;;7.91;82.04;100331.75;5018508;28;20550;-82
2021/11/05 00:19:34;;;;;;;6.30;4.63;;;;;;;7.88;82.00;100324.13;5018401;28;20423;-82
2021/11/05 00:21:59;;;;;;;5.30;4.90;;;;;;;7.78;82.37;100332.78;5018689;28;20423;-81
2021/11/05 00:24:24;;;;;;;5.18;4.70;;;;;;;7.75;82.23;100333.22;5019316;28;20415;-81
2021/11/05 00:26:50;;;;;;;4.50;4.20;;;;;;;7.76;82.21;100334.88;5016917;28;20411;-82
2021/11/05 00:29:15;;;;;;;5.20;4.70;;;;;;;7.76;82.53;100341.13;5017849;28;20827;-82
2021/11/05 00:31:40;;;;;;;5.03;4.53;;;;;;;7.75;82.41;100344.84;5018189;28;20410;-82
2021/11/05 00:34:06;;;;;;;5.00;4.53;;;;;;;7.76;82.81;100337.59;5017645;28;20419;-81
2021/11/05 00:36:31;;;;;;;5.43;4.93;;;;;;;7.70;82.83;100342.03;5017686;28;20447;-82
2021/11/05 00:38:56;;;;;;;6.25;4.95;;;;;;;7.72;82.85;100347.19;5015783;28;20999;-82
2021/11/05 00:41:22;;;;;;;4.80;4.40;;;;;;;7.72;83.02;100355.28;5017335;28;20902;-82
2021/11/05 00:43:47;;;;;;;4.80;4.40;;;;;;;7.73;83.10;100355.06;5018237;28;20533;-82
2021/11/05 00:46:13;;;;;;;5.37;4.67;;;;;;;7.70;83.01;100352.00;5017429;28;20508;-82
2021/11/05 00:48:38;;;;;;;5.37;4.90;;;;;;;7.68;83.11;100354.06;5015998;28;20449;-82
2021/11/05 00:51:03;;;;;;;5.47;4.73;;;;;;;7.71;82.92;100353.63;5015601;28;20549;-82
2021/11/05 00:53:29;;;;;;;5.77;4.27;;;;;;;7.70;83.10;100350.13;5017122;28;20889;-82
2021/11/05 00:55:54;;;;;;;6.67;5.17;;;;;;;7.77;82.86;100356.22;5017990;28;20425;-82
2021/11/05 00:58:20;;;;;;;5.07;4.67;;;;;;;7.80;83.12;100360.38;5014573;28;20433;-82
2021/11/05 01:00:45;;;;;;;5.30;4.78;;;;;;;7.75;82.92;100362.91;5017528;28;20544;-82
2021/11/05 01:03:11;;;;;;;5.68;4.88;;;;;;;7.81;82.58;100359.28;5016488;28;20513;-82
2021/11/05 01:05:36;;;;;;;5.80;4.93;;;;;;;7.80;82.94;100363.84;5017601;28;20456;-82
2021/11/05 01:08:03;;;;;;;4.93;4.33;;;;;;;7.82;82.90;100363.63;5019145;28;20412;-82
2021/11/05 01:10:28;;;;;;;6.40;4.88;;;;;;;7.84;82.45;100370.44;5017428;28;20780;-82
2021/11/05 01:12:54;;;;;;;5.27;4.87;;;;;;;7.78;82.86;100370.53;5018410;28;20411;-81
2021/11/05 01:15:19;;;;;;;5.47;4.97;;;;;;;7.76;82.52;100367.25;5021013;28;20494;-82
2021/11/05 01:17:45;;;;;;;5.20;4.80;;;;;;;7.76;83.05;100367.25;5020555;28;20415;-82
2021/11/05 01:20:14;;;;;;;5.07;4.53;;;;;;;7.78;82.55;100368.66;5021533;28;20778;-82
2021/11/05 01:22:40;;;;;;;4.60;4.20;;;;;;;7.79;82.47;100364.09;5024474;28;20424;-81
2021/11/05 01:25:06;;;;;;;4.18;3.78;;;;;;;7.82;82.60;100367.16;5024804;28;20419;-82
2021/11/05 01:27:31;;;;;;;4.97;4.43;;;;;;;7.72;82.81;100371.47;5020466;28;20500;-81
2021/11/05 01:29:58;;;;;;;5.00;3.85;;;;;;;7.77;82.86;100371.63;5021521;28;20435;-82
2021/11/05 01:32:24;;;;;;;4.95;4.45;;;;;;;7.78;82.87;100368.66;5020596;28;20415;-82
2021/11/05 01:34:50;;;;;;;4.88;4.47;;;;;;;7.81;82.70;100379.00;5027770;28;20970;-82
2021/11/05 01:37:15;;;;;;;4.77;4.20;;;;;;;7.81;82.25;100372.78;5012976;28;20509;-82
2021/11/05 01:39:41;;;;;;;4.83;4.00;;;;;;;7.81;81.75;100368.22;5030317;28;20418;-82
2021/11/05 01:42:06;;;;;;;4.28;3.97;;;;;;;7.83;82.24;100370.69;5026502;28;20506;-82
2021/11/05 01:44:32;;;;;;;3.70;3.40;;;;;;;7.77;82.68;100377.00;5029867;28;20399;-81
2021/11/05 01:46:57;;;;;;;4.13;3.83;;;;;;;7.75;82.36;100374.53;5015514;28;20779;-82
2021/11/05 01:49:22;;;;;;;3.67;3.42;;;;;;;7.76;82.65;100375.34;5007930;28;20418;-81
2021/11/05 01:51:48;;;;;;;4.90;4.50;;;;;;;7.73;82.27;100379.34;5010384;28;20979;-82
2021/11/05 01:54:14;;;;;;;4.67;4.20;;;;;;;7.74;82.80;100377.44;5009444;28;20426;-82
2021/11/05 01:56:42;;;;;;;3.67;3.47;;;;;;;7.78;82.51;100379.47;5010187;28;20454;-82
2021/11/05 01:59:18;;;;;;;3.80;3.60;;;;;;;7.81;82.57;100375.47;5009958;28;20429;-82
2021/11/05 02:01:43;;;;;;;3.70;3.47;;;;;;;7.79;82.19;100378.41;5009241;28;20419;-82
2021/11/05 02:04:08;;;;;;;3.95;3.58;;;;;;;7.72;82.57;100391.16;5011975;28;20423;-82
2021/11/05 02:06:34;;;;;;;4.60;3.27;;;;;;;7.76;82.54;100384.28;5020057;28;20413;-82
2021/11/05 02:09:02;;;;;;;3.47;3.17;;;;;;;7.80;81.79;100377.34;5006939;28;20446;-82
2021/11/05 02:11:27;;;;;;;4.32;3.75;;;;;;;7.82;81.67;100386.06;5010099;28;22356;-82
2021/11/05 02:13:55;;;;;;;3.95;3.60;;;;;;;7.86;81.74;100386.41;5009762;28;20431;-82
2021/11/05 02:16:22;;;;;;;3.83;3.53;;;;;;;7.90;82.18;100392.19;5011045;28;20418;-80
2021/11/05 02:18:47;;;;;;;5.18;3.90;;;;;;;7.84;81.49;100393.91;5009086;28;20414;-81
2021/11/05 02:21:18;;;;;;;5.63;3.47;;;;;;;7.84;82.38;100391.19;5010742;28;20457;-81
2021/11/05 02:23:43;;;;;;;5.20;3.80;;;;;;;7.77;82.64;100398.59;5007836;28;20426;-82
2021/11/05 02:26:09;;;;;;;3.78;3.45;;;;;;;7.81;82.65;100403.28;5010087;28;20407;-82
2021/11/05 02:28:36;;;;;;;3.67;3.28;;;;;;;7.86;82.30;100402.59;5020682;28;20489;-82
2021/11/05 02:31:02;;;;;;;4.10;3.70;;;;;;;7.81;82.11;100403.28;5014464;28;20402;-81
2021/11/05 02:33:28;;;;;;;4.03;3.63;;;;;;;7.75;82.98;100397.97;5009471;28;22606;-82
2021/11/05 02:35:53;;;;;;;4.65;3.72;;;;;;;7.78;82.70;100406.44;5006367;28;20890;-82
2021/11/05 02:38:19;;;;;;;4.00;3.70;;;;;;;7.79;82.88;100413.50;5008267;28;20529;-82
2021/11/05 02:40:44;;;;;;;4.15;3.75;;;;;;;7.83;83.02;100412.00;5010526;28;20409;-82
2021/11/05 02:43:09;;;;;;;4.23;3.83;;;;;;;7.78;83.13;100411.84;5011058;28;20430;-82
2021/11/05 02:45:35;;;;;;;11.50;10.13;;;;;;;7.79;83.60;100424.28;5007090;28;20493;-82
2021/11/05 02:48:01;;;;;;;4.10;3.72;;;;;;;7.81;82.97;100426.72;5009996;28;20979;-82
2021/11/05 02:50:26;;;;;;;4.27;3.87;;;;;;;7.80;83.25;100427.81;5019973;28;20497;-82
2021/11/05 02:52:52;;;;;;;6.23;3.90;;;;;;;7.75;83.40;100433.88;5007548;28;20417;-82
2021/11/05 02:55:17;;;;;;;3.70;3.40;;;;;;;7.74;83.71;100431.38;5008789;28;20414;-81
2021/11/05 02:57:43;;;;;;;4.57;4.23;;;;;;;7.76;83.82;100432.00;5007550;28;20438;-82
2021/11/05 03:00:10;;;;;;;4.90;4.40;;;;;;;7.76;83.14;100443.63;5007776;28;20971;-82
2021/11/05 03:02:35;;;;;;;4.82;4.32;;;;;;;7.71;84.18;100437.25;5005403;28;20462;-82
2021/11/05 03:05:00;;;;;;;5.00;4.50;;;;;;;7.72;83.76;100442.41;5006995;28;20414;-82
2021/11/05 03:07:26;;;;;;;4.95;4.57;;;;;;;7.81;83.57;100440.22;5008015;28;20409;-82
2021/11/05 03:09:51;;;;;;;4.53;4.23;;;;;;;7.84;83.28;100440.59;5007632;28;20419;-82
2021/11/05 03:12:16;;;;;;;5.00;4.60;;;;;;;7.78;83.28;100446.06;5015808;28;20900;-82
2021/11/05 03:14:42;;;;;;;5.25;4.85;;;;;;;7.77;83.84;100449.84;5015723;28;20765;-82
2021/11/05 03:17:08;;;;;;;5.30;4.75;;;;;;;7.74;83.86;100450.25;5018070;28;20433;-82
2021/11/05 03:19:34;;;;;;;7.03;5.60;;;;;;;7.73;83.81;100449.47;5016116;28;20410;-82
2021/11/05 03:22:00;;;;;;;5.50;5.10;;;;;;;7.72;83.91;100457.78;5014459;28;20443;-82
2021/11/05 03:24:25;;;;;;;5.20;4.80;;;;;;;7.79;83.84;100458.53;5016155;28;20919;-82
2021/11/05 03:26:51;;;;;;;5.60;5.00;;;;;;;7.80;83.80;100460.97;5009403;28;20509;-81
2021/11/05 03:29:16;;;;;;;5.53;5.13;;;;;;;7.78;83.73;100464.97;5007533;28;20785;-82
2021/11/05 03:31:42;;;;;;;7.03;5.10;;;;;;;7.80;83.77;100470.97;5005967;28;20414;-82
2021/11/05 03:34:08;;;;;;;5.32;4.93;;;;;;;7.83;83.85;100475.91;5006952;28;20403;-82
2021/11/05 03:36:34;;;;;;;6.70;5.57;;;;;;;7.88;83.58;100475.22;5007258;28;20431;-82
2021/11/05 03:38:59;;;;;;;7.77;4.70;;;;;;;7.91;83.33;100472.88;5006369;28;20413;-82
2021/11/05 03:41:26;;;;;;;5.05;4.65;;;;;;;7.90;83.42;100475.81;5013148;28;20411;-82
2021/11/05 03:43:51;;;;;;;5.35;4.70;;;;;;;7.88;82.97;100476.03;5029230;28;20437;-82
2021/11/05 03:46:17;;;;;;;6.00;4.93;;;;;;;7.89;83.24;100488.50;5024939;28;20413;-82
2021/11/05 03:48:43;;;;;;;5.73;5.23;;;;;;;7.83;83.22;100495.63;5029100;28;20409;-81
2021/11/05 03:51:08;;;;;;;5.50;5.00;;;;;;;7.82;83.17;100490.44;5027280;28;20452;-81
2021/11/05 03:53:34;;;;;;;5.13;4.63;;;;;;;7.80;83.79;100498.75;5025894;28;21078;-82
2021/11/05 03:56:00;;;;;;;5.83;5.30;;;;;;;7.74;84.11;100499.66;5025849;28;20409;-81
2021/11/05 03:58:25;;;;;;;5.87;5.47;;;;;;;7.75;84.31;100506.69;5024943;28;20766;-82
2021/11/05 04:00:51;;;;;;;6.65;5.50;;;;;;;7.79;83.38;100513.31;5026500;28;20879;-81
2021/11/05 04:03:17;;;;;;;4.80;4.50;;;;;;;7.79;83.83;100517.88;5028983;28;21036;-81
2021/11/05 04:05:42;;;;;;;5.47;4.93;;;;;;;7.82;84.20;100520.94;5027385;28;20871;-81
2021/11/05 04:08:07;;;;;;;10.73;9.63;;;;;;;7.86;83.83;100531.28;5027082;28;20475;-82
2021/11/05 04:10:33;;;;;;;9.63;7.40;;;;;;;7.79;83.65;100524.09;5025612;28;20512;-81
2021/11/05 04:13:01;;;;;;;7.07;6.37;;;;;;;7.82;84.00;100530.91;5024333;28;20412;-81
2021/11/05 04:15:27;;;;;;;8.45;6.45;;;;;;;7.79;84.16;100537.59;5027888;28;20406;-82
2021/11/05 04:17:53;;;;;;;8.35;6.47;;;;;;;7.79;84.06;100542.16;5033125;28;20409;-82
2021/11/05 04:20:18;;;;;;;6.30;5.70;;;;;;;7.76;84.02;100540.72;5023858;28;20408;-82
2021/11/05 04:22:43;;;;;;;7.33;5.80;;;;;;;7.84;83.59;100545.81;5027657;28;20419;-82
2021/11/05 04:25:09;;;;;;;6.17;5.57;;;;;;;7.89;83.30;100555.94;5027519;28;20772;-81
2021/11/05 04:27:35;;;;;;;7.75;6.30;;;;;;;7.81;83.35;100556.22;5028173;28;20440;-81
2021/11/05 04:30:00;;;;;;;7.07;6.38;;;;;;;7.80;83.47;100557.31;5045277;28;20410;-82
2021/11/05 04:32:26;;;;;;;6.60;6.00;;;;;;;7.81;83.56;100558.94;5024552;28;20448;-81
2021/11/05 04:34:51;;;;;;;7.40;6.60;;;;;;;7.88;83.06;100562.38;5022340;28;20445;-81
2021/11/05 04:37:16;;;;;;;7.13;6.43;;;;;;;7.81;83.21;100559.75;5024775;28;20466;-82
2021/11/05 04:39:42;;;;;;;7.35;6.60;;;;;;;7.82;83.88;100565.97;5027474;28;20419;-82
2021/11/05 04:42:07;;;;;;;7.83;6.53;;;;;;;7.84;83.29;100571.97;5025228;28;20903;-82
2021/11/05 04:44:33;;;;;;;7.35;6.65;;;;;;;7.78;83.56;100567.47;5021102;28;20464;-82
2021/11/05 04:46:58;;;;;;;7.60;6.70;;;;;;;7.79;83.52;100575.34;5028452;28;20490;-82
2021/11/05 04:49:24;;;;;;;8.57;7.17;;;;;;;7.77;83.43;100576.63;5038179;28;20772;-81
2021/11/05 04:51:50;;;;;;;8.33;7.63;;;;;;;7.72;83.80;100577.28;5041269;28;20414;-82
2021/11/05 04:54:15;;;;;;;6.55;6.00;;;;;;;7.75;84.17;100576.84;5041345;28;20414;-81
2021/11/05 04:56:40;;;;;;;7.50;6.70;;;;;;;7.81;83.60;100589.44;5038159;28;20417;-81
2021/11/05 04:59:06;;;;;;;7.30;6.70;;;;;;;7.81;84.06;100584.03;5040325;28;20429;-81
2021/11/05 05:01:31;;;;;;;7.20;6.55;;;;;;;7.86;83.74;100585.25;5037636;28;20453;-81
2021/11/05 05:03:57;;;;;;;7.03;6.40;;;;;;;7.93;83.41;100584.13;5040947;28;20515;-81
2021/11/05 05:06:22;;;;;;;7.45;6.82;;;;;;;7.92;83.01;100590.56;5044827;28;20401;-81
2021/11/05 05:08:47;;;;;;;7.17;6.47;;;;;;;7.92;83.10;100597.84;5039834;28;20418;-81
2021/11/05 05:11:13;;;;;;;7.27;6.57;;;;;;;7.89;83.25;100593.72;5040850;28;20445;-81
2021/11/05 05:13:40;;;;;;;8.43;7.63;;;;;;;7.90;83.05;100595.38;5040620;28;20434;-82
2021/11/05 05:16:05;;;;;;;17.73;12.18;;;;;;;7.83;83.50;100597.31;5039342;28;20411;-82
2021/11/05 05:18:31;;;;;;;20.47;12.50;;;;;;;7.89;83.86;100601.81;5039879;28;20917;-82
2021/11/05 05:20:56;;;;;;;30.63;16.17;;;;;;;7.91;83.70;100605.09;5041612;28;20413;-82
2021/11/05 05:23:21;;;;;;;8.50;7.53;;;;;;;7.94;83.50;100607.34;5044357;28;20435;-82
2021/11/05 05:25:47;;;;;;;10.07;8.63;;;;;;;7.98;83.62;100607.72;5040861;28;20413;-82
2021/11/05 05:28:12;;;;;;;24.80;14.80;;;;;;;7.91;83.74;100615.91;5040907;28;20607;-82
2021/11/05 05:30:38;;;;;;;10.30;8.40;;;;;;;7.95;83.46;100618.97;5040249;28;20411;-82
2021/11/05 05:33:03;;;;;;;13.40;10.63;;;;;;;7.98;83.48;100618.53;5042234;28;20548;-82
2021/11/05 05:35:28;;;;;;;13.93;10.05;;;;;;;8.02;83.89;100631.34;5039556;28;20413;-82
2021/11/05 05:37:54;;;;;;;13.67;10.80;;;;;;;8.03;83.51;100621.41;5037082;28;20500;-81
2021/11/05 05:40:21;;;;;;;14.00;11.07;;;;;;;7.98;83.51;100626.63;5039930;28;20570;-82
2021/11/05 05:42:47;;;;;;;14.97;11.00;;;;;;;7.95;83.83;100633.28;5036751;28;20419;-82
2021/11/05 05:45:12;;;;;;;18.17;13.47;;;;;;;7.90;84.03;100635.84;5040445;28;20470;-82
2021/11/05 05:47:40;;;;;;;14.23;11.00;;;;;;;7.97;83.77;100633.88;5038337;28;20914;-82
2021/11/05 05:50:08;;;;;;;11.55;9.95;;;;;;;7.96;83.66;100640.34;5039628;28;20409;-82
2021/11/05 05:52:34;;;;;;;9.45;8.45;;;;;;;7.95;84.38;100643.25;5039130;28;20408;-82
2021/11/05 05:54:59;;;;;;;8.10;7.30;;;;;;;7.97;83.80;100650.09;5044322;28;20403;-82
2021/11/05 05:57:24;;;;;;;9.70;8.70;;;;;;;7.97;84.09;100650.09;5039274;28;20403;-82
2021/11/05 05:59:50;;;;;;;10.23;8.90;;;;;;;7.98;84.03;100650.91;5048553;28;20389;-82
2021/11/05 06:02:15;;;;;;;10.20;8.60;;;;;;;7.97;83.92;100650.09;5036798;28;20409;-82
2021/11/05 06:04:40;;;;;;;17.10;12.00;;;;;;;7.96;83.70;100659.25;5048233;28;20459;-82
2021/11/05 06:07:06;;;;;;;16.03;10.97;;;;;;;7.95;84.08;100656.75;5047808;28;20938;-82
2021/11/05 06:09:31;;;;;;;13.70;11.00;;;;;;;7.97;84.39;100660.88;5043839;28;20405;-82
2021/11/05 06:11:57;;;;;;;13.77;9.50;;;;;;;8.00;83.95;100663.13;5039848;28;20428;-82
2021/11/05 06:14:22;;;;;;;11.43;9.77;;;;;;;8.05;84.19;100673.25;5039620;28;20410;-82
2021/11/05 06:16:47;;;;;;;9.90;8.93;;;;;;;8.04;84.22;100675.13;5038847;28;20403;-82
2021/11/05 06:19:13;;;;;;;9.57;8.23;;;;;;;8.04;83.75;100677.84;5047132;28;20403;-82
2021/11/05 06:21:38;;;;;;;10.27;9.27;;;;;;;7.96;83.88;100682.69;5047407;28;20400;-82
2021/11/05 06:24:04;;;;;;;11.20;9.47;;;;;;;7.95;84.06;100679.16;5038694;28;20471;-82
2021/11/05 06:26:29;;;;;;;9.53;8.63;;;;;;;7.99;84.37;100676.84;5042306;28;20465;-82
2021/11/05 06:28:55;;;;;;;9.67;8.77;;;;;;;7.97;83.93;100678.97;5044733;28;20670;-82
2021/11/05 06:31:20;;;;;;;9.43;8.63;;;;;;;8.01;84.50;100691.78;5052999;28;20837;-82
2021/11/05 06:33:46;;;;;;;10.10;9.07;;;;;;;8.02;84.44;100682.63;5037186;28;21016;-82
2021/11/05 06:36:11;;;;;;;9.20;8.30;;;;;;;8.00;84.06;100702.81;5036968;28;20902;-82
2021/11/05 06:38:37;;;;;;;10.07;9.00;;;;;;;7.98;84.82;100697.63;5039054;28;20737;-82
2021/11/05 06:41:03;;;;;;;13.57;8.87;;;;;;;8.05;84.65;100711.06;5035390;28;20884;-82
2021/11/05 06:43:28;;;;;;;9.07;8.15;;;;;;;8.13;84.15;100713.47;5039651;28;20822;-82
2021/11/05 06:45:53;;;;;;;9.50;8.63;;;;;;;8.15;84.18;100717.59;5038825;28;20403;-82
2021/11/05 06:48:19;;;;;;;9.43;8.00;;;;;;;8.14;83.96;100721.34;5039002;28;20459;-82
2021/11/05 06:50:44;;;;;;;9.55;8.65;;;;;;;8.13;83.67;100737.78;5039348;28;20405;-82
2021/11/05 06:53:10;;;;;;;9.10;8.30;;;;;;;8.14;83.60;100737.53;5038983;28;21234;-82
2021/11/05 06:55:36;;;;;;;9.15;8.15;;;;;;;8.18;83.67;100743.31;5036493;28;20501;-82
2021/11/05 06:58:03;;;;;;;9.55;8.43;;;;;;;8.16;84.06;100753.53;5042106;28;20410;-81
2021/11/05 07:00:28;;;;;;;9.35;8.45;;;;;;;8.14;84.12;100747.50;5046977;28;20393;-81
2021/11/05 07:02:53;;;;;;;9.53;8.23;;;;;;;8.21;83.45;100751.81;5044563;28;20413;-81
2021/11/05 07:05:19;;;;;;;10.13;9.10;;;;;;;8.19;83.66;100763.88;5044490;28;20432;-81
2021/11/05 07:07:45;;;;;;;9.13;8.20;;;;;;;8.21;83.72;100770.69;5044959;28;20418;-81
2021/11/05 07:10:12;;;;;;;10.38;9.00;;;;;;;8.25;83.84;100774.63;5044609;28;20875;-82
2021/11/05 07:12:38;;;;;;;9.18;8.27;;;;;;;8.28;83.64;100778.78;5037469;28;20418;-82
2021/11/05 07:15:05;;;;;;;11.35;10.23;;;;;;;8.30;83.73;100782.88;5034805;28;20413;-81
2021/11/05 07:17:34;;;;;;;12.48;10.57;;;;;;;8.23;84.00;100786.69;5033876;28;20417;-81
2021/11/05 07:19:59;;;;;;;11.30;9.20;;;;;;;8.19;83.74;100794.41;5043388;28;20576;-81
2021/11/05 07:22:25;;;;;;;10.47;9.20;;;;;;;8.24;83.84;100796.41;5044792;28;20501;-82
2021/11/05 07:24:51;;;;;;;10.23;9.23;;;;;;;8.29;83.88;100802.03;5041197;28;20443;-83
2021/11/05 07:27:17;;;;;;;10.20;9.20;;;;;;;8.33;83.41;100806.75;5044447;28;20410;-82
2021/11/05 07:29:42;;;;;;;12.00;8.73;;;;;;;8.36;83.62;100810.06;5049153;28;20484;-83
2021/11/05 07:32:09;;;;;;;9.23;8.43;;;;;;;8.37;83.50;100814.41;5048454;28;20405;-83
2021/11/05 07:34:36;;;;;;;10.27;9.27;;;;;;;8.41;83.54;100818.31;5031412;28;20407;-82
2021/11/05 07:37:03;;;;;;;12.45;9.35;;;;;;;8.44;83.72;100828.69;5039002;28;20417;-83
2021/11/05 07:39:29;;;;;;;9.88;8.88;;;;;;;8.31;84.15;100840.44;5042269;28;20410;-80
2021/11/05 07:41:55;;;;;;;9.98;8.52;;;;;;;8.32;83.98;100842.91;5048231;28;20437;-81
2021/11/05 07:44:20;;;;;;;11.23;9.90;;;;;;;8.40;83.20;100841.78;5038706;28;20513;-82
2021/11/05 07:46:47;;;;;;;10.18;9.10;;;;;;;8.43;83.14;100854.06;5035646;28;20422;-81
2021/11/05 07:49:13;;;;;;;11.60;10.38;;;;;;;8.46;83.61;100854.44;5037778;28;20408;-83
2021/11/05 07:51:38;;;;;;;11.05;9.82;;;;;;;8.46;83.28;100862.53;5042888;28;20410;-83
2021/11/05 07:54:05;;;;;;;13.97;10.13;;;;;;;8.49;83.03;100872.06;5047431;28;20409;-81
2021/11/05 07:56:30;;;;;;;11.25;10.02;;;;;;;8.47;83.59;100877.69;5040393;28;20409;-84
2021/11/05 07:58:57;;;;;;;12.02;9.57;;;;;;;8.48;83.77;100884.75;5021611;28;20416;-81
2021/11/05 08:01:22;;;;;;;14.98;11.27;;;;;;;8.50;83.85;100888.03;5036596;28;20526;-81
2021/11/05 08:03:48;;;;;;;14.73;10.57;;;;;;;8.52;83.48;100893.22;5045219;28;20500;-82
2021/11/05 08:06:13;;;;;;;14.63;12.00;;;;;;;8.57;83.65;100901.50;5038817;28;20535;-80
2021/11/05 08:08:39;;;;;;;21.43;18.03;;;;;;;8.60;83.35;100901.88;5036848;28;20416;-81
2021/11/05 08:11:04;;;;;;;13.40;10.63;;;;;;;8.63;83.53;100904.13;5039491;28;20400;-81
2021/11/05 08:13:30;;;;;;;15.57;12.30;;;;;;;8.59;83.76;100913.75;5045436;28;20413;-84
2021/11/05 08:15:55;;;;;;;15.80;13.53;;;;;;;8.62;83.76;100909.78;5042874;28;20421;-83
2021/11/05 08:18:20;;;;;;;14.23;12.57;;;;;;;8.65;83.23;100920.97;5038334;28;20421;-81
2021/11/05 08:20:46;;;;;;;14.77;11.23;;;;;;;8.72;83.58;100926.31;5035156;28;20450;-83
2021/11/05 08:23:11;;;;;;;12.60;11.30;;;;;;;8.86;83.39;100931.38;5042920;28;20421;-82
2021/11/05 08:25:36;;;;;;;10.53;9.43;;;;;;;8.95;82.59;100929.22;5040140;28;20404;-82
2021/11/05 08:28:03;;;;;;;11.73;10.53;;;;;;;9.05;82.15;100934.94;5052296;28;20409;-82
2021/11/05 08:30:28;;;;;;;12.63;11.07;;;;;;;9.14;82.08;100938.16;5046652;28;20411;-81
2021/11/05 08:32:57;;;;;;;12.40;10.50;;;;;;;9.17;82.08;100938.56;5042394;28;20800;-81
2021/11/05 08:35:25;;;;;;;11.23;10.07;;;;;;;9.26;82.08;100939.91;5041178;28;20401;-82
2021/11/05 08:37:51;;;;;;;13.77;11.80;;;;;;;9.42;82.01;100946.59;5048280;28;20433;-81
2021/11/05 08:40:17;;;;;;;11.43;9.77;;;;;;;9.61;81.09;100950.13;5053410;28;20412;-81
2021/11/05 08:42:43;;;;;;;12.30;10.93;;;;;;;9.73;80.97;100957.25;5045165;28;20527;-82
2021/11/05 08:45:08;;;;;;;12.10;10.80;;;;;;;9.81;80.15;100954.22;5042044;28;20448;-81
2021/11/05 08:47:38;;;;;;;9.73;8.45;;;;;;;9.81;79.65;100959.63;5047984;28;20440;-81
2021/11/05 08:50:16;;;;;;;10.47;9.47;;;;;;;9.85;79.68;100962.72;5051162;28;20403;-81
2021/11/05 08:52:42;;;;;;;10.98;9.60;;;;;;;9.80;80.01;100965.31;5051455;28;20460;-81
2021/11/05 08:55:09;;;;;;;10.63;9.53;;;;;;;9.77;79.93;100969.28;5040755;28;20496;-80
2021/11/05 08:57:35;;;;;;;12.00;10.77;;;;;;;9.78;80.08;100975.53;5042031;28;21127;-80
2021/11/05 09:00:04;;;;;;;15.18;11.77;;;;;;;9.57;81.01;100979.53;5041628;28;20421;-79
2021/11/05 09:02:29;;;;;;;11.93;10.60;;;;;;;9.59;80.94;100985.53;5042042;28;20423;-80
2021/11/05 09:04:54;;;;;;;13.63;11.23;;;;;;;9.37;81.42;100982.44;5040807;28;20416;-80
2021/11/05 09:07:20;;;;;;;11.57;10.18;;;;;;;9.30;81.82;100991.66;5040824;28;20418;-79
2021/11/05 09:09:46;;;;;;;11.43;10.10;;;;;;;9.34;82.02;100987.47;5039357;28;20419;-79
2021/11/05 09:12:12;;;;;;;13.02;10.90;;;;;;;9.42;81.64;100999.91;5033116;28;20413;-80
2021/11/05 09:14:37;;;;;;;12.23;10.90;;;;;;;9.49;81.66;100992.50;5053152;28;20402;-81
2021/11/05 09:17:03;;;;;;;13.02;10.18;;;;;;;9.48;81.77;100999.81;5042492;28;20523;-79
2021/11/05 09:19:28;;;;;;;11.30;10.20;;;;;;;9.48;82.03;101002.53;5036546;28;20451;-81
2021/11/05 09:21:54;;;;;;;11.23;10.03;;;;;;;9.59;81.75;101003.63;5043261;28;20809;-82
2021/11/05 09:24:21;;;;;;;11.57;9.43;;;;;;;9.74;81.22;101012.22;5050510;28;20420;-81
2021/11/05 09:26:46;;;;;;;9.85;8.95;;;;;;;9.82;80.68;101012.75;5038275;28;20896;-80
2021/11/05 09:29:13;;;;;;;10.23;8.43;;;;;;;9.90;80.17;101019.75;5049479;28;20489;-81
2021/11/05 09:31:39;;;;;;;10.40;9.30;;;;;;;9.94;79.83;101025.53;5028483;28;20393;-81
2021/11/05 09:34:04;;;;;;;10.90;9.80;;;;;;;9.89;80.04;101029.72;5044687;28;20417;-82
2021/11/05 09:36:29;;;;;;;11.90;9.30;;;;;;;9.81;80.86;101031.94;5043475;28;20788;-81
2021/11/05 09:38:56;;;;;;;11.10;9.93;;;;;;;9.76;81.03;101038.00;5043954;28;20409;-80
2021/11/05 09:41:21;;;;;;;10.93;9.65;;;;;;;9.79;80.68;101037.56;5051128;28;20408;-80
2021/11/05 09:43:46;;;;;;;10.50;9.40;;;;;;;9.88;80.57;101040.78;5049862;28;20418;-81
2021/11/05 09:46:12;;;;;;;15.87;10.80;;;;;;;9.81;80.72;101048.16;5038266;28;20399;-81
2021/11/05 09:48:38;;;;;;;12.17;10.43;;;;;;;9.85;80.60;101050.19;5041727;28;20473;-81
2021/11/05 09:51:08;;;;;;;14.27;10.75;;;;;;;9.97;80.98;101052.97;5039403;28;20483;-79
2021/11/05 09:53:37;;;;;;;14.60;11.03;;;;;;;10.02;80.39;101061.22;5049012;28;20405;-80
2021/11/05 09:56:04;;;;;;;14.25;10.65;;;;;;;10.04;80.26;101056.44;5045690;28;20397;-80
2021/11/05 09:58:30;;;;;;;11.60;9.07;;;;;;;10.07;80.31;101055.97;5027582;28;20487;-80
2021/11/05 10:00:55;;;;;;;9.00;8.10;;;;;;;10.08;80.25;101057.63;5033329;28;21721;-80
2021/11/05 10:03:20;;;;;;;8.88;8.07;;;;;;;10.20;79.79;101074.81;5039385;28;20421;-80
2021/11/05 10:05:51;;;;;;;9.70;8.33;;;;;;;10.25;78.84;101071.41;5040182;28;20415;-81
2021/11/05 10:08:26;;;;;;;9.75;8.38;;;;;;;10.25;78.95;101071.41;5038696;28;20414;-80
2021/11/05 10:10:51;;;;;;;15.95;10.15;;;;;;;10.27;79.16;101088.28;5038118;28;20449;-80
2021/11/05 10:13:22;;;;;;;10.90;9.40;;;;;;;10.34;78.61;101089.03;5044140;28;20437;-80
2021/11/05 10:15:49;;;;;;;10.80;9.07;;;;;;;10.14;79.03;101085.72;5042755;28;20436;-79
2021/11/05 10:18:33;;;;;;;11.70;9.57;;;;;;;10.04;79.53;101083.53;5040218;28;20415;-80
2021/11/05 10:21:09;;;;;;;10.63;9.60;;;;;;;10.14;79.81;101096.56;5045223;28;20401;-80
2021/11/05 10:23:36;;;;;;;12.65;9.63;;;;;;;10.15;79.91;101093.59;5042438;28;20419;-79
2021/11/05 10:26:03;;;;;;;9.63;8.73;;;;;;;10.23;79.67;101085.19;5041882;28;20426;-79
2021/11/05 10:28:28;;;;;;;10.30;9.00;;;;;;;10.27;79.91;101093.69;5039503;28;20888;-80
2021/11/05 10:31:00;;;;;;;10.40;9.30;;;;;;;10.29;79.94;101089.69;5043516;28;20544;-80
2021/11/05 10:33:32;;;;;;;9.93;8.93;;;;;;;10.43;79.44;101100.34;5044966;28;20417;-79
2021/11/05 10:36:00;;;;;;;9.50;8.60;;;;;;;10.49;79.52;101102.97;5050065;28;20926;-80
2021/11/05 10:38:26;;;;;;;11.88;10.10;;;;;;;10.75;78.83;101089.06;5038854;28;20517;-80
2021/11/05 10:40:56;;;;;;;9.00;8.20;;;;;;;11.06;78.11;101100.72;5051015;28;20550;-80
2021/11/05 10:43:42;;;;;;;9.00;8.10;;;;;;;11.26;76.67;101101.22;5050634;28;20413;-80
2021/11/05 10:46:23;;;;;;;10.63;9.35;;;;;;;11.31;75.50;101094.03;5048816;28;20425;-80
2021/11/05 10:48:49;;;;;;;12.82;11.50;;;;;;;11.43;75.19;101105.72;5019981;28;20892;-80
2021/11/05 10:51:15;;;;;;;12.52;9.52;;;;;;;11.47;75.63;101100.63;5043623;28;20415;-80
2021/11/05 10:53:42;;;;;;;10.13;8.97;;;;;;;11.50;75.27;101099.34;5046113;28;20433;-80
2021/11/05 10:56:12;;;;;;;11.52;9.63;;;;;;;11.30;75.98;101100.50;5045060;28;20469;-81
2021/11/05 10:58:41;;;;;;;9.68;8.77;;;;;;;11.31;75.92;101102.16;5042786;28;20478;-79
2021/11/05 11:01:14;;;;;;;10.02;9.02;;;;;;;11.25;75.99;101105.81;5042227;28;20414;-81
2021/11/05 11:03:45;;;;;;;12.02;9.80;;;;;;;11.35;75.91;101103.34;5045146;28;20425;-83
2021/11/05 11:06:14;;;;;;;9.47;8.57;;;;;;;11.42;73.60;101111.38;5044616;28;22440;-82
2021/11/05 11:08:44;;;;;;;10.73;8.98;;;;;;;11.44;72.97;101104.66;5033553;28;20426;-81
2021/11/05 11:11:23;;;;;;;12.30;9.00;;;;;;;11.61;73.71;101117.53;5048304;28;20401;-81
2021/11/05 11:14:00;;;;;;;8.95;8.05;;;;;;;11.56;71.72;101109.28;5045482;28;20402;-80
2021/11/05 11:16:27;;;;;;;13.57;9.60;;;;;;;11.47;73.26;101114.22;5038158;28;20878;-80
2021/11/05 11:19:09;;;;;;;11.05;8.60;;;;;;;11.32;73.44;101125.53;5037440;28;20502;-80
2021/11/05 11:21:40;;;;;;;9.45;8.55;;;;;;;11.27;74.48;101114.53;5038247;28;20733;-81